createdAt,value
2024-01-18T00:02:28.735Z,28.38
2024-01-18T00:04:56.796Z,28.73
2024-01-18T00:07:24.485Z,28.17
2024-01-18T00:09:52.483Z,30.52
2024-01-18T00:12:19.997Z,26.83
2024-01-18T00:14:47.961Z,30.40
2024-01-18T00:17:15.960Z,31.00
2024-01-18T00:19:44.006Z,27.90
2024-01-18T00:22:11.586Z,32.20
2024-01-18T00:24:39.513Z,32.22
2024-01-18T00:27:08.260Z,35.50
2024-01-18T00:29:36.124Z,40.05
2024-01-18T00:32:05.336Z,38.47
2024-01-18T00:34:33.117Z,30.63
2024-01-18T00:37:00.620Z,33.75
2024-01-18T00:39:28.430Z,44.03
2024-01-18T00:41:55.910Z,40.58
2024-01-18T00:44:23.727Z,35.37
2024-01-18T00:46:53.774Z,36.05
2024-01-18T00:49:21.915Z,39.55
2024-01-18T00:51:49.381Z,33.90
2024-01-18T00:54:17.332Z,36.95
2024-01-18T00:56:44.906Z,36.57
2024-01-18T00:59:12.757Z,37.88
2024-01-18T01:01:40.291Z,33.28
2024-01-18T01:04:08.127Z,34.15
2024-01-18T01:06:35.586Z,35.13
2024-01-18T01:09:03.697Z,36.73
2024-01-18T01:11:31.130Z,37.05
2024-01-18T01:13:58.896Z,35.33
2024-01-18T01:16:26.401Z,36.58
2024-01-18T01:18:54.523Z,31.45
2024-01-18T01:21:22.029Z,38.07
2024-01-18T01:23:53.153Z,41.13
2024-01-18T01:26:20.890Z,35.95
2024-01-18T01:28:50.578Z,36.67
2024-01-18T01:31:18.230Z,38.60
2024-01-18T01:33:46.314Z,38.93
2024-01-18T01:36:14.254Z,36.05
2024-01-18T01:38:42.221Z,33.83
2024-01-18T01:41:09.893Z,38.47
2024-01-18T01:43:37.598Z,36.28
2024-01-18T01:46:05.208Z,35.77
2024-01-18T01:48:32.995Z,38.95
2024-01-18T01:51:00.622Z,35.20
2024-01-18T01:53:28.495Z,32.13
2024-01-18T01:55:56.004Z,37.08
2024-01-18T01:58:24.070Z,36.40
2024-01-18T02:00:52.717Z,37.92
2024-01-18T02:03:20.631Z,35.45
2024-01-18T02:05:48.430Z,33.75
2024-01-18T02:08:16.160Z,40.85
2024-01-18T02:10:44.797Z,33.83
2024-01-18T02:13:12.959Z,36.95
2024-01-18T02:15:40.834Z,38.83
2024-01-18T02:18:08.616Z,38.53
2024-01-18T02:20:36.168Z,40.55
2024-01-18T02:23:06.748Z,35.57
2024-01-18T02:25:34.205Z,41.33
2024-01-18T02:28:01.913Z,36.92
2024-01-18T02:30:29.716Z,35.42
2024-01-18T02:32:57.658Z,34.22
2024-01-18T02:35:25.282Z,34.57
2024-01-18T02:37:53.183Z,32.38
2024-01-18T02:40:23.632Z,36.53
2024-01-18T02:42:51.809Z,38.03
2024-01-18T02:45:19.499Z,32.65
2024-01-18T02:47:47.496Z,34.80
2024-01-18T02:50:15.020Z,36.63
2024-01-18T02:52:42.915Z,34.25
2024-01-18T02:55:11.008Z,31.98
2024-01-18T02:57:38.885Z,32.05
2024-01-18T03:00:07.045Z,27.77
2024-01-18T03:02:34.803Z,31.10
2024-01-18T03:05:02.196Z,30.08
2024-01-18T03:07:30.554Z,28.05
2024-01-18T03:09:58.044Z,30.48
2024-01-18T03:12:25.825Z,27.67
2024-01-18T03:14:53.380Z,28.92
2024-01-18T03:17:21.047Z,29.05
2024-01-18T03:19:48.775Z,30.75
2024-01-18T03:22:17.307Z,30.00
2024-01-18T03:24:44.956Z,28.83
2024-01-18T03:27:12.690Z,28.83
2024-01-18T03:29:40.525Z,30.38
2024-01-18T03:32:08.394Z,28.67
2024-01-18T03:34:35.871Z,27.90
2024-01-18T03:37:03.879Z,31.53
2024-01-18T03:39:37.068Z,26.80
2024-01-18T03:42:05.396Z,29.90
2024-01-18T03:44:35.357Z,28.02
2024-01-18T03:47:03.392Z,44.70
2024-01-18T03:49:30.899Z,39.97
2024-01-18T03:51:58.724Z,32.30
2024-01-18T03:54:26.213Z,27.52
2024-01-18T03:56:54.291Z,27.75
2024-01-18T03:59:21.798Z,30.10
2024-01-18T04:01:49.639Z,37.33
2024-01-18T04:04:17.117Z,32.38
2024-01-18T04:06:45.072Z,32.53
2024-01-18T04:09:12.693Z,30.63
2024-01-18T04:11:40.659Z,30.48
2024-01-18T04:14:07.978Z,31.07
2024-01-18T04:16:36.108Z,28.25
2024-01-18T04:19:05.131Z,27.50
2024-01-18T04:21:35.178Z,28.05
2024-01-18T04:24:02.830Z,32.65
2024-01-18T04:26:32.981Z,30.07
2024-01-18T04:29:00.599Z,29.60
2024-01-18T04:31:28.181Z,34.08
2024-01-18T04:33:57.412Z,31.75
2024-01-18T04:36:25.347Z,30.55
2024-01-18T04:38:53.098Z,35.87
2024-01-18T04:41:20.817Z,30.55
2024-01-18T04:43:48.321Z,31.42
2024-01-18T04:46:16.051Z,32.28
2024-01-18T04:48:46.215Z,34.55
2024-01-18T04:51:13.950Z,33.60
2024-01-18T04:53:41.553Z,39.10
2024-01-18T05:02:00.958Z,32.22
2024-01-18T05:04:28.992Z,38.33
2024-01-18T05:06:56.662Z,39.15
2024-01-18T05:09:24.623Z,36.80
2024-01-18T05:11:53.338Z,39.50
2024-01-18T05:14:21.209Z,43.65
2024-01-18T05:16:53.200Z,40.80
2024-01-18T05:19:22.414Z,35.55
2024-01-18T05:21:49.904Z,36.85
2024-01-18T05:24:21.089Z,50.67
2024-01-18T05:26:48.634Z,45.22
2024-01-18T05:29:16.365Z,39.27
2024-01-18T05:31:43.977Z,40.40
2024-01-18T05:34:11.872Z,45.88
2024-01-18T05:36:39.610Z,50.97
2024-01-18T05:39:07.580Z,38.58
2024-01-18T05:41:34.989Z,34.63
2024-01-18T05:44:02.795Z,38.42
2024-01-18T05:46:30.432Z,45.95
2024-01-18T05:48:58.240Z,38.67
2024-01-18T05:51:25.809Z,43.50
2024-01-18T05:53:53.647Z,36.30
2024-01-18T05:56:21.218Z,42.22
2024-01-18T05:58:49.070Z,55.35
2024-01-18T06:01:16.812Z,56.95
2024-01-18T06:03:44.660Z,61.97
2024-01-18T06:06:13.184Z,94.17
2024-01-18T06:08:40.951Z,80.55
2024-01-18T06:11:08.954Z,64.30
2024-01-18T06:13:41.182Z,83.82
2024-01-18T06:16:12.634Z,65.88
2024-01-18T06:18:44.622Z,63.73
2024-01-18T06:21:12.987Z,49.05
2024-01-18T06:23:43.739Z,69.07
2024-01-18T06:26:14.552Z,81.82
2024-01-18T06:28:42.459Z,67.47
2024-01-18T06:31:10.332Z,44.90
2024-01-18T06:33:39.287Z,43.83
2024-01-18T06:36:09.801Z,44.65
2024-01-18T06:38:37.732Z,45.30
2024-01-18T06:41:05.688Z,50.67
2024-01-18T06:43:33.538Z,52.87
2024-01-18T06:46:01.071Z,49.38
2024-01-18T06:48:29.666Z,47.92
2024-01-18T06:50:57.086Z,46.30
2024-01-18T06:53:25.273Z,51.65
2024-01-18T06:55:52.711Z,55.23
2024-01-18T06:58:20.581Z,47.65
2024-01-18T07:00:49.360Z,48.65
2024-01-18T07:03:17.396Z,48.15
2024-01-18T07:05:44.916Z,40.35
2024-01-18T07:08:12.861Z,45.40
2024-01-18T07:10:40.312Z,34.60
2024-01-18T07:13:08.237Z,39.08
2024-01-18T07:15:35.736Z,40.00
2024-01-18T07:18:04.023Z,60.17
2024-01-18T07:20:31.657Z,63.33
2024-01-18T07:22:59.444Z,47.88
2024-01-18T07:25:26.928Z,40.13
2024-01-18T07:27:54.846Z,43.17
2024-01-18T07:30:23.555Z,43.20
2024-01-18T07:32:51.583Z,53.70
2024-01-18T07:35:19.190Z,41.80
2024-01-18T07:37:47.012Z,44.58
2024-01-18T07:40:14.516Z,42.08
2024-01-18T07:42:42.475Z,53.40
2024-01-18T07:45:13.017Z,52.77
2024-01-18T07:47:41.254Z,50.42
2024-01-18T07:50:19.236Z,47.97
2024-01-18T07:52:58.122Z,25.63
2024-01-18T07:55:26.992Z,35.80
2024-01-18T07:57:55.591Z,37.90
2024-01-18T08:00:23.174Z,30.60
2024-01-18T08:02:52.055Z,36.35
2024-01-18T08:05:19.648Z,33.95
2024-01-18T08:07:47.527Z,36.67
2024-01-18T08:10:15.096Z,35.87
2024-01-18T08:12:46.324Z,31.52
2024-01-18T08:15:14.706Z,33.13
2024-01-18T08:17:45.413Z,34.90
2024-01-18T08:20:16.244Z,41.08
2024-01-18T08:22:47.452Z,38.70
2024-01-18T08:25:15.265Z,34.08
2024-01-18T08:27:44.723Z,34.40
2024-01-18T08:30:12.785Z,34.10
2024-01-18T08:32:40.798Z,30.08
2024-01-18T08:35:09.271Z,34.17
2024-01-18T08:37:39.072Z,39.53
2024-01-18T08:40:07.949Z,36.72
2024-01-18T08:42:37.180Z,34.72
2024-01-18T08:45:05.736Z,37.65
2024-01-18T08:47:34.421Z,35.87
2024-01-18T08:50:02.274Z,35.85
2024-01-18T08:52:30.175Z,32.85
2024-01-18T08:54:57.798Z,30.73
2024-01-18T08:57:27.051Z,36.47
2024-01-18T08:59:54.631Z,30.97
2024-01-18T09:02:24.135Z,34.33
2024-01-18T09:04:53.069Z,35.25
2024-01-18T09:07:21.454Z,31.65
2024-01-18T09:09:49.553Z,34.25
2024-01-18T09:12:17.749Z,34.83
2024-01-18T09:14:46.085Z,35.83
2024-01-18T09:17:14.178Z,33.78
2024-01-18T09:19:42.874Z,34.70
2024-01-18T09:22:11.281Z,36.65
2024-01-18T09:24:39.053Z,33.10
2024-01-18T09:27:07.120Z,31.48
2024-01-18T09:29:34.759Z,28.35
2024-01-18T09:32:02.652Z,28.48
2024-01-18T09:34:30.181Z,25.35
2024-01-18T09:36:58.854Z,30.47
2024-01-18T09:39:26.914Z,26.02
2024-01-18T09:41:57.478Z,35.33
2024-01-18T09:44:27.497Z,29.55
2024-01-18T09:46:55.776Z,30.73
2024-01-18T09:49:23.386Z,26.43
2024-01-18T09:51:52.236Z,29.75
2024-01-18T09:54:20.180Z,27.35
2024-01-18T09:56:53.103Z,33.13
2024-01-18T09:59:23.020Z,34.45
2024-01-18T10:01:51.205Z,29.17
2024-01-18T10:04:21.052Z,35.85
2024-01-18T10:06:49.302Z,30.13
2024-01-18T10:09:17.696Z,26.50
2024-01-18T10:11:48.002Z,27.42
2024-01-18T10:14:16.485Z,25.27
2024-01-18T10:16:44.592Z,31.15
2024-01-18T10:19:20.772Z,27.83
2024-01-18T10:21:49.423Z,29.17
2024-01-18T10:24:18.783Z,25.08
2024-01-18T10:26:46.682Z,24.80
2024-01-18T10:29:14.269Z,26.83
2024-01-18T10:31:45.274Z,27.77
2024-01-18T10:34:12.942Z,26.52
2024-01-18T10:36:40.925Z,27.73
2024-01-18T10:39:19.975Z,39.03
2024-01-18T10:41:48.749Z,35.10
2024-01-18T10:44:17.154Z,44.15
2024-01-18T10:46:47.166Z,42.95
2024-01-18T10:49:15.862Z,37.30
2024-01-18T10:51:43.970Z,36.97
2024-01-18T10:54:21.822Z,37.63
2024-01-18T10:57:02.256Z,34.63
2024-01-18T10:59:30.747Z,36.25
2024-01-18T11:02:06.459Z,39.70
2024-01-18T11:04:34.243Z,46.33
2024-01-18T11:07:03.242Z,36.50
2024-01-18T11:09:31.865Z,43.58
2024-01-18T11:12:00.455Z,44.80
2024-01-18T11:14:29.002Z,41.53
2024-01-18T11:17:13.220Z,39.77
2024-01-18T11:19:45.682Z,35.45
2024-01-18T11:22:25.398Z,57.75
2024-01-18T11:24:53.877Z,35.15
2024-01-18T11:27:24.537Z,33.28
2024-01-18T11:29:52.830Z,36.10
2024-01-18T11:32:21.820Z,36.75
2024-01-18T11:34:52.466Z,41.75
2024-01-18T11:37:26.454Z,39.63
2024-01-18T11:39:55.308Z,43.90
2024-01-18T11:42:26.385Z,39.73
2024-01-18T11:45:09.969Z,39.88
2024-01-18T11:47:40.780Z,38.00
2024-01-18T11:50:12.893Z,45.63
2024-01-18T11:52:45.322Z,62.55
2024-01-18T11:55:14.084Z,69.50
2024-01-18T11:57:42.111Z,62.45
2024-01-18T12:00:12.845Z,47.60
2024-01-18T12:02:43.557Z,35.80
2024-01-18T12:05:12.207Z,42.30
2024-01-18T12:07:42.207Z,41.03
2024-01-18T12:10:11.928Z,37.53
2024-01-18T12:12:45.912Z,31.70
2024-01-18T12:15:22.593Z,37.22
2024-01-18T12:17:50.767Z,38.47
2024-01-18T12:20:19.804Z,38.50
2024-01-18T12:22:47.723Z,35.60
2024-01-18T12:25:15.468Z,33.90
2024-01-18T12:27:43.780Z,36.45
2024-01-18T12:30:12.081Z,32.25
2024-01-18T12:32:43.538Z,30.93
2024-01-18T12:35:11.782Z,32.85
2024-01-18T12:37:40.652Z,31.55
2024-01-18T12:40:12.386Z,35.88
2024-01-18T12:42:40.520Z,33.30
2024-01-18T12:45:08.629Z,33.27
2024-01-18T12:47:37.974Z,31.55
2024-01-18T12:50:09.661Z,34.25
2024-01-18T12:52:38.829Z,34.35
2024-01-18T12:55:06.609Z,38.13
2024-01-18T12:57:34.971Z,32.53
2024-01-18T13:00:06.118Z,35.83
2024-01-18T13:02:34.086Z,34.30
2024-01-18T13:05:02.334Z,34.00
2024-01-18T13:07:31.620Z,40.08
2024-01-18T13:10:00.579Z,42.13
2024-01-18T13:12:30.777Z,40.28
2024-01-18T13:15:04.287Z,37.13
2024-01-18T13:17:41.123Z,43.67
2024-01-18T13:20:12.578Z,41.92
2024-01-18T13:22:40.667Z,49.00
2024-01-18T13:25:08.528Z,45.97
2024-01-18T13:27:37.925Z,44.85
2024-01-18T13:30:06.723Z,51.33
2024-01-18T13:32:34.771Z,45.42
2024-01-18T13:35:02.679Z,54.40
2024-01-18T13:37:31.540Z,49.28
2024-01-18T13:39:59.275Z,47.60
2024-01-18T13:42:27.247Z,53.22
2024-01-18T13:44:55.483Z,42.45
2024-01-18T13:47:23.590Z,40.40
2024-01-18T13:49:52.086Z,36.67
2024-01-18T13:52:21.814Z,38.55
2024-01-18T13:54:49.596Z,49.80
2024-01-18T13:57:17.694Z,44.70
2024-01-18T13:59:45.190Z,42.43
2024-01-18T14:02:13.228Z,38.60
2024-01-18T14:04:40.924Z,36.65
2024-01-18T14:07:09.910Z,41.30
2024-01-18T14:09:38.094Z,30.63
2024-01-18T14:12:06.123Z,30.47
2024-01-18T14:14:33.883Z,31.17
2024-01-18T14:17:02.015Z,31.33
2024-01-18T14:19:32.402Z,47.28
2024-01-18T14:22:00.457Z,55.08
2024-01-18T14:24:28.010Z,62.10
2024-01-18T14:26:55.943Z,63.90
2024-01-18T14:29:23.605Z,49.85
2024-01-18T14:31:51.558Z,45.50
2024-01-18T14:34:19.273Z,43.70
2024-01-18T14:36:48.167Z,41.53
2024-01-18T14:39:17.205Z,44.55
2024-01-18T14:41:45.278Z,40.92
2024-01-18T14:44:12.825Z,40.25
2024-01-18T14:46:41.773Z,41.47
2024-01-18T14:49:10.282Z,44.63
2024-01-18T14:51:38.066Z,43.17
2024-01-18T14:54:05.671Z,43.90
2024-01-18T14:56:33.701Z,40.83
2024-01-18T14:59:01.333Z,37.40
2024-01-18T15:01:29.105Z,38.27
2024-01-18T15:03:56.773Z,56.30
2024-01-18T15:06:24.721Z,46.22
2024-01-18T15:08:52.489Z,61.90
2024-01-18T15:11:20.467Z,62.38
2024-01-18T15:13:48.364Z,69.30
2024-01-18T15:16:17.218Z,71.20
2024-01-18T15:18:45.978Z,59.58
2024-01-18T15:21:14.234Z,48.72
2024-01-18T15:23:41.938Z,47.90
2024-01-18T15:26:10.257Z,51.70
2024-01-18T15:28:39.726Z,55.45
2024-01-18T15:31:07.630Z,56.75
2024-01-18T15:33:35.286Z,60.70
2024-01-18T15:36:03.327Z,60.83
2024-01-18T15:38:31.360Z,55.50
2024-01-18T15:40:59.177Z,52.58
2024-01-18T15:43:26.840Z,71.30
2024-01-18T15:45:56.917Z,55.50
2024-01-18T15:48:27.511Z,54.95
2024-01-18T15:50:56.310Z,47.40
2024-01-18T15:53:24.024Z,50.00
2024-01-18T15:55:52.033Z,75.80
2024-01-18T15:58:19.558Z,90.20
2024-01-18T16:00:47.494Z,107.07
2024-01-18T16:03:16.091Z,69.17
2024-01-18T16:05:44.112Z,57.67
2024-01-18T16:08:11.571Z,71.63
2024-01-18T16:10:39.337Z,51.85
2024-01-18T16:13:06.979Z,60.95
2024-01-18T16:15:35.036Z,48.70
2024-01-18T16:18:03.079Z,54.85
2024-01-18T16:20:31.108Z,48.50
2024-01-18T16:23:01.202Z,40.90
2024-01-18T16:25:30.951Z,48.45
2024-01-18T16:28:00.048Z,41.13
2024-01-18T16:30:30.950Z,53.85
2024-01-18T16:32:59.533Z,50.50
2024-01-18T16:35:30.846Z,49.17
2024-01-18T16:38:02.190Z,45.60
2024-01-18T16:40:34.034Z,46.00
2024-01-18T16:43:02.662Z,46.97
2024-01-18T16:45:31.184Z,47.85
2024-01-18T16:47:59.015Z,69.60
2024-01-18T16:50:26.882Z,76.70
2024-01-18T16:52:55.105Z,77.60
2024-01-18T16:55:22.768Z,70.25
2024-01-18T16:57:50.342Z,67.15
2024-01-18T17:00:18.333Z,76.78
2024-01-18T17:02:46.244Z,70.03
2024-01-18T17:05:14.437Z,68.47
2024-01-18T17:07:42.020Z,67.22
2024-01-18T17:10:10.060Z,66.18
2024-01-18T17:12:38.873Z,65.20
2024-01-18T17:15:07.342Z,61.75
2024-01-18T17:17:35.827Z,57.10
2024-01-18T17:20:04.977Z,52.28
2024-01-18T17:22:33.149Z,63.30
2024-01-18T17:25:00.922Z,49.22
2024-01-18T17:27:28.374Z,48.80
2024-01-18T17:29:56.185Z,48.67
2024-01-18T17:32:23.753Z,48.97
2024-01-18T17:34:52.615Z,49.40
2024-01-18T17:37:20.303Z,71.97
2024-01-18T17:39:47.975Z,61.30
2024-01-18T17:42:15.428Z,116.17
2024-01-18T17:44:43.427Z,131.20
2024-01-18T17:47:10.982Z,107.97
2024-01-18T17:49:39.278Z,131.48
2024-01-18T17:52:06.944Z,123.13
2024-01-18T17:54:34.582Z,124.40
2024-01-18T17:57:02.329Z,112.93
2024-01-18T17:59:30.218Z,121.60
2024-01-18T18:02:03.584Z,122.28
2024-01-18T18:04:42.883Z,134.27
2024-01-18T18:07:10.487Z,120.47
2024-01-18T18:09:38.209Z,103.57
2024-01-18T18:12:06.210Z,111.43
2024-01-18T18:14:36.133Z,87.63
2024-01-18T18:17:09.661Z,89.13
2024-01-18T18:19:51.728Z,83.33
2024-01-18T18:22:30.106Z,58.40
2024-01-18T18:24:58.320Z,79.13
2024-01-18T18:27:25.740Z,83.80
2024-01-18T18:29:53.532Z,106.80
2024-01-18T18:32:21.107Z,91.90
2024-01-18T18:34:49.462Z,68.93
2024-01-18T18:37:20.747Z,69.13
2024-01-18T18:39:52.721Z,38.08
2024-01-18T18:42:23.383Z,42.50
2024-01-18T18:44:51.346Z,38.63
2024-01-18T18:47:18.974Z,40.95
2024-01-18T18:49:46.829Z,41.35
2024-01-18T18:52:14.357Z,39.95
2024-01-18T18:54:42.137Z,41.30
2024-01-18T18:57:10.069Z,41.83
2024-01-18T18:59:46.650Z,40.03
2024-01-18T19:02:23.954Z,72.95
2024-01-18T19:04:54.770Z,80.72
2024-01-18T19:07:22.543Z,80.95
2024-01-18T19:09:51.387Z,85.37
2024-01-18T19:12:18.880Z,87.57
2024-01-18T19:14:46.591Z,108.18
2024-01-18T19:17:15.394Z,108.25
2024-01-18T19:19:43.080Z,77.28
2024-01-18T19:22:10.580Z,44.00
2024-01-18T19:24:38.346Z,46.40
2024-01-18T19:27:09.008Z,49.42
2024-01-18T19:29:36.853Z,42.28
2024-01-18T19:32:05.302Z,35.55
2024-01-18T19:34:33.131Z,30.07
2024-01-18T19:37:00.496Z,34.03
2024-01-18T19:39:32.582Z,40.70
2024-01-18T19:42:02.958Z,37.22
2024-01-18T19:44:30.837Z,40.50
2024-01-18T19:46:59.249Z,32.37
2024-01-18T19:49:27.125Z,30.70
2024-01-18T19:51:54.725Z,31.08
2024-01-18T19:54:22.414Z,30.63
2024-01-18T19:56:50.573Z,32.45
2024-01-18T19:59:19.437Z,70.90
2024-01-18T20:01:48.887Z,66.53
2024-01-18T20:04:16.784Z,71.68
2024-01-18T20:06:44.576Z,58.03
2024-01-18T20:09:12.270Z,47.67
2024-01-18T20:11:39.883Z,47.33
2024-01-18T20:14:07.662Z,44.25
2024-01-18T20:16:35.289Z,34.78
2024-01-18T20:19:03.097Z,36.92
2024-01-18T20:21:31.592Z,35.00
2024-01-18T20:24:00.159Z,30.40
2024-01-18T20:26:27.633Z,29.10
2024-01-18T20:28:58.517Z,27.98
2024-01-18T20:31:26.031Z,30.80
2024-01-18T20:33:53.894Z,24.95
2024-01-18T20:36:21.945Z,33.73
2024-01-18T20:38:51.275Z,32.80
2024-01-18T20:41:19.677Z,29.38
2024-01-18T20:43:48.265Z,31.35
2024-01-18T20:46:15.870Z,31.77
2024-01-18T20:48:43.628Z,31.03
2024-01-18T20:51:11.161Z,28.83
2024-01-18T20:53:40.934Z,28.15
2024-01-18T20:56:08.726Z,28.10
2024-01-18T20:58:36.633Z,27.05
2024-01-18T21:01:04.502Z,24.27
2024-01-18T21:03:32.360Z,27.27
2024-01-18T21:06:00.006Z,31.98
2024-01-18T21:08:27.925Z,33.22
2024-01-18T21:10:55.350Z,27.80
2024-01-18T21:13:23.093Z,31.10
2024-01-18T21:15:50.676Z,31.50
2024-01-18T21:18:18.807Z,28.67
2024-01-18T21:20:46.553Z,28.02
2024-01-18T21:23:15.732Z,25.42
2024-01-18T21:25:43.377Z,28.53
2024-01-18T21:28:11.271Z,31.83
2024-01-18T21:30:39.008Z,27.52
2024-01-18T21:33:09.218Z,24.95
2024-01-18T21:35:39.108Z,24.00
2024-01-18T21:38:07.301Z,28.37
2024-01-18T21:40:34.776Z,23.33
2024-01-18T21:43:02.699Z,26.63
2024-01-18T21:45:30.201Z,18.42
2024-01-18T21:47:58.827Z,18.52
2024-01-18T21:50:27.055Z,17.27
2024-01-18T21:52:55.205Z,15.25
2024-01-18T21:55:22.716Z,19.73
2024-01-18T21:57:50.555Z,17.52
2024-01-18T22:00:18.422Z,21.02
2024-01-18T22:02:46.537Z,21.00
2024-01-18T22:05:14.238Z,14.07
2024-01-18T22:07:43.544Z,10.02
2024-01-18T22:10:11.176Z,11.23
2024-01-18T22:12:38.935Z,9.95
2024-01-18T22:15:07.141Z,7.60
2024-01-18T22:17:37.045Z,8.27
2024-01-18T22:20:06.147Z,8.70
2024-01-18T22:22:33.997Z,7.43
2024-01-18T22:25:01.708Z,5.93
2024-01-18T22:27:30.024Z,7.63
2024-01-18T22:29:57.492Z,10.68
2024-01-18T22:32:25.233Z,8.90
2024-01-18T22:34:53.105Z,8.07
2024-01-18T22:37:21.190Z,9.90
2024-01-18T22:39:48.984Z,10.87
2024-01-18T22:42:16.835Z,10.70
2024-01-18T22:44:44.444Z,10.05
2024-01-18T22:47:12.621Z,8.65
2024-01-18T22:49:40.398Z,7.90
2024-01-18T22:52:08.219Z,7.17
2024-01-18T22:54:35.973Z,7.38
2024-01-18T22:57:04.069Z,9.52
2024-01-18T22:59:31.612Z,10.57
2024-01-18T23:01:59.394Z,10.57
2024-01-18T23:04:27.055Z,10.33
2024-01-18T23:06:54.745Z,9.90
2024-01-18T23:09:22.248Z,7.30
2024-01-18T23:11:50.514Z,7.30
2024-01-18T23:14:18.208Z,5.88
2024-01-18T23:16:46.018Z,8.80
2024-01-18T23:19:13.606Z,7.53
2024-01-18T23:21:42.248Z,8.55
2024-01-18T23:24:10.262Z,6.07
2024-01-18T23:26:47.554Z,7.65
2024-01-18T23:29:15.345Z,11.00
2024-01-18T23:31:43.125Z,6.50
2024-01-18T23:34:12.082Z,6.93
2024-01-18T23:36:40.221Z,9.45
2024-01-18T23:39:09.582Z,7.13
2024-01-18T23:41:37.429Z,10.63
2024-01-18T23:44:05.254Z,9.73
2024-01-18T23:46:34.199Z,8.75
2024-01-18T23:49:01.721Z,8.23
2024-01-18T23:51:30.154Z,12.38
2024-01-18T23:53:57.808Z,11.30
2024-01-18T23:56:25.702Z,13.73
2024-01-18T23:58:53.172Z,10.82
